createdAt,value
2023-02-16T00:01:55.858Z,1.30
2023-02-16T00:04:26.044Z,1.20
2023-02-16T00:06:53.668Z,1.20
2023-02-16T00:09:21.495Z,1.10
2023-02-16T00:12:07.531Z,1.00
2023-02-16T00:14:37.584Z,1.00
2023-02-16T00:17:05.863Z,1.00
2023-02-16T00:19:42.040Z,0.90
2023-02-16T00:22:11.398Z,0.80
2023-02-16T00:24:38.289Z,0.70
2023-02-16T00:27:14.048Z,0.60
2023-02-16T00:29:42.169Z,0.50
2023-02-16T00:32:12.443Z,0.40
2023-02-16T00:34:41.763Z,0.30
2023-02-16T00:37:11.559Z,0.30
2023-02-16T00:39:40.181Z,0.10
2023-02-16T00:42:33.525Z,0.00
2023-02-16T00:45:01.180Z,-0.10
2023-02-16T00:47:40.367Z,-0.10
2023-02-16T00:50:19.579Z,-0.20
2023-02-16T00:52:47.399Z,-0.30
2023-02-16T00:55:17.388Z,-0.40
2023-02-16T00:57:52.862Z,-0.30
2023-02-16T01:00:33.989Z,-0.40
2023-02-16T01:03:04.892Z,-0.50
2023-02-16T01:05:31.869Z,-0.50
2023-02-16T01:08:18.566Z,-0.60
2023-02-16T01:11:04.307Z,-0.60
2023-02-16T01:13:32.895Z,-0.60
2023-02-16T01:16:03.250Z,-0.70
2023-02-16T01:18:30.286Z,-0.70
2023-02-16T01:20:57.126Z,-0.70
2023-02-16T01:23:24.040Z,-0.80
2023-02-16T01:25:50.885Z,-0.80
2023-02-16T01:28:21.655Z,-0.80
2023-02-16T01:30:49.972Z,-0.80
2023-02-16T01:33:17.421Z,-0.80
2023-02-16T01:35:45.338Z,-0.90
2023-02-16T01:38:24.295Z,-0.90
2023-02-16T01:41:04.684Z,-0.80
2023-02-16T01:43:54.488Z,-0.80
2023-02-16T01:46:38.712Z,-0.80
2023-02-16T01:49:05.594Z,-0.80
2023-02-16T01:51:56.476Z,-0.70
2023-02-16T01:54:49.901Z,-0.70
2023-02-16T01:57:39.119Z,-0.70
2023-02-16T02:00:31.113Z,-0.80
2023-02-16T02:03:20.372Z,-0.80
2023-02-16T02:05:49.780Z,-0.90
2023-02-16T02:08:40.126Z,-0.90
2023-02-16T02:11:23.511Z,-0.90
2023-02-16T02:14:08.992Z,-0.90
2023-02-16T02:16:35.970Z,-0.90
2023-02-16T02:19:03.593Z,-0.80
2023-02-16T02:22:08.080Z,-0.60
2023-02-16T02:24:49.926Z,-0.50
2023-02-16T02:27:42.477Z,-0.40
2023-02-16T02:30:24.213Z,-0.40
2023-02-16T02:33:05.918Z,-0.40
2023-02-16T02:35:56.155Z,-0.50
2023-02-16T02:38:37.194Z,-0.50
2023-02-16T02:41:23.932Z,-0.60
2023-02-16T02:43:57.241Z,-0.70
2023-02-16T02:46:31.846Z,-0.80
2023-02-16T02:48:58.986Z,-0.90
2023-02-16T02:51:28.715Z,-1.00
2023-02-16T02:54:20.413Z,-1.00
2023-02-16T02:57:39.420Z,-1.00
2023-02-16T03:00:41.268Z,-1.10
2023-02-16T03:03:43.035Z,-1.10
2023-02-16T03:06:16.580Z,-1.10
2023-02-16T03:08:47.127Z,-1.20
2023-02-16T03:11:42.690Z,-1.20
2023-02-16T03:14:28.577Z,-1.10
2023-02-16T03:17:17.909Z,-1.00
2023-02-16T03:20:06.901Z,-1.00
2023-02-16T03:22:54.412Z,-1.00
2023-02-16T03:25:43.395Z,-1.00
2023-02-16T03:28:30.940Z,-1.00
2023-02-16T03:30:59.675Z,-1.00
2023-02-16T03:33:27.902Z,-1.10
2023-02-16T03:35:55.488Z,-1.10
2023-02-16T03:38:22.740Z,-1.10
2023-02-16T03:40:51.030Z,-1.10
2023-02-16T03:43:17.887Z,-1.20
2023-02-16T03:45:45.428Z,-1.20
2023-02-16T03:48:12.812Z,-1.30
2023-02-16T03:50:39.779Z,-1.30
2023-02-16T03:53:07.014Z,-1.40
2023-02-16T03:55:40.505Z,-1.40
2023-02-16T03:58:09.291Z,-1.40
2023-02-16T04:00:37.267Z,-1.50
2023-02-16T04:03:05.923Z,-1.50
2023-02-16T04:05:33.653Z,-1.60
2023-02-16T04:08:00.707Z,-1.60
2023-02-16T04:10:28.179Z,-1.60
2023-02-16T04:12:55.071Z,-1.60
2023-02-16T04:15:24.177Z,-1.70
2023-02-16T04:17:51.058Z,-1.70
2023-02-16T04:20:20.978Z,-1.70
2023-02-16T04:22:48.540Z,-1.70
2023-02-16T04:25:16.312Z,-1.70
2023-02-16T04:27:44.520Z,-1.80
2023-02-16T04:30:16.166Z,-1.80
2023-02-16T04:32:43.222Z,-1.80
2023-02-16T04:35:10.484Z,-1.80
2023-02-16T04:37:37.660Z,-1.80
2023-02-16T04:40:06.476Z,-1.80
2023-02-16T04:42:33.363Z,-1.90
2023-02-16T04:45:00.351Z,-1.90
2023-02-16T04:47:27.264Z,-1.90
2023-02-16T04:49:54.446Z,-1.90
2023-02-16T04:52:21.461Z,-1.90
2023-02-16T04:54:48.644Z,-1.90
2023-02-16T04:57:16.210Z,-2.00
2023-02-16T04:59:43.172Z,-2.00
2023-02-16T05:02:10.090Z,-2.00
2023-02-16T05:04:37.034Z,-2.00
2023-02-16T05:07:03.999Z,-2.10
2023-02-16T05:09:30.874Z,-2.10
2023-02-16T05:12:16.470Z,-2.10
2023-02-16T05:14:44.565Z,-2.10
2023-02-16T05:17:23.441Z,-2.10
2023-02-16T05:19:57.715Z,-2.10
2023-02-16T05:22:25.463Z,-2.10
2023-02-16T05:24:52.774Z,-2.10
2023-02-16T05:27:28.319Z,-2.00
2023-02-16T05:29:55.289Z,-2.10
2023-02-16T05:32:22.630Z,-2.10
2023-02-16T05:34:49.766Z,-2.10
2023-02-16T05:37:18.705Z,-2.10
2023-02-16T05:39:46.061Z,-2.10
2023-02-16T05:42:13.354Z,-2.10
2023-02-16T05:44:40.265Z,-2.10
2023-02-16T05:47:07.800Z,-2.20
2023-02-16T05:49:34.830Z,-2.20
2023-02-16T05:52:02.453Z,-2.20
2023-02-16T05:54:29.364Z,-2.10
2023-02-16T05:56:56.296Z,-2.10
2023-02-16T05:59:23.192Z,-2.00
2023-02-16T06:01:52.076Z,-2.00
2023-02-16T06:04:20.755Z,-1.90
2023-02-16T06:06:48.620Z,-1.80
2023-02-16T06:09:15.574Z,-1.80
2023-02-16T06:11:43.100Z,-1.70
2023-02-16T06:14:12.507Z,-1.60
2023-02-16T06:16:44.492Z,-1.60
2023-02-16T06:19:12.138Z,-1.50
2023-02-16T06:21:39.786Z,-1.40
2023-02-16T06:24:08.483Z,-1.40
2023-02-16T06:26:36.129Z,-1.40
2023-02-16T06:29:03.404Z,-1.30
2023-02-16T06:31:30.429Z,-1.20
2023-02-16T06:33:57.759Z,-1.10
2023-02-16T06:36:25.283Z,-1.00
2023-02-16T06:38:52.258Z,-1.00
2023-02-16T06:41:37.547Z,-0.90
2023-02-16T06:44:07.469Z,-0.90
2023-02-16T06:46:34.893Z,-0.90
2023-02-16T06:49:02.247Z,-0.90
2023-02-16T06:51:29.160Z,-0.80
2023-02-16T06:53:56.086Z,-0.80
2023-02-16T06:56:23.543Z,-0.80
2023-02-16T06:58:50.986Z,-0.60
2023-02-16T07:01:23.396Z,-0.60
2023-02-16T07:03:51.652Z,-0.60
2023-02-16T07:06:20.246Z,-0.50
2023-02-16T07:08:47.205Z,-0.50
2023-02-16T07:11:14.399Z,-0.50
2023-02-16T07:13:41.394Z,-0.40
2023-02-16T07:16:08.744Z,-0.40
2023-02-16T07:18:35.742Z,-0.30
2023-02-16T07:21:02.957Z,-0.20
2023-02-16T07:23:30.380Z,-0.20
2023-02-16T07:25:57.295Z,-0.20
2023-02-16T07:28:24.295Z,-0.20
2023-02-16T07:30:51.303Z,-0.20
2023-02-16T07:33:18.838Z,-0.30
2023-02-16T07:35:45.675Z,-0.20
2023-02-16T07:38:12.650Z,-0.20
2023-02-16T07:40:39.749Z,-0.10
2023-02-16T07:43:06.956Z,-0.10
2023-02-16T07:45:34.388Z,0.00
2023-02-16T07:48:02.432Z,0.10
2023-02-16T07:50:29.442Z,0.30
2023-02-16T07:52:56.584Z,0.40
2023-02-16T07:55:23.554Z,0.50
2023-02-16T07:57:54.752Z,0.70
2023-02-16T08:00:22.524Z,0.90
2023-02-16T08:02:49.943Z,1.00
2023-02-16T08:05:17.303Z,1.20
2023-02-16T08:07:46.487Z,1.30
2023-02-16T08:10:14.611Z,1.60
2023-02-16T08:12:41.968Z,1.90
2023-02-16T08:15:10.037Z,2.10
2023-02-16T08:17:36.981Z,2.20
2023-02-16T08:20:05.755Z,2.40
2023-02-16T08:22:32.885Z,2.70
2023-02-16T08:24:59.954Z,3.20
2023-02-16T08:27:27.005Z,3.80
2023-02-16T08:29:54.393Z,4.50
2023-02-16T08:32:21.412Z,5.20
2023-02-16T08:34:48.319Z,5.70
2023-02-16T08:37:15.186Z,6.30
2023-02-16T08:39:42.328Z,6.90
2023-02-16T08:42:13.216Z,7.30
2023-02-16T08:44:41.207Z,7.80
2023-02-16T08:47:09.561Z,8.30
2023-02-16T08:49:36.535Z,8.70
2023-02-16T08:52:04.230Z,9.00
2023-02-16T08:54:33.299Z,9.20
2023-02-16T08:57:02.854Z,9.50
2023-02-16T08:59:30.428Z,9.90
2023-02-16T09:01:59.280Z,10.10
2023-02-16T09:04:28.974Z,10.50
2023-02-16T09:06:58.445Z,10.80
2023-02-16T09:09:26.511Z,11.30
2023-02-16T09:11:53.677Z,11.70
2023-02-16T09:14:22.992Z,12.10
2023-02-16T09:16:50.088Z,12.40
2023-02-16T09:19:20.485Z,12.50
2023-02-16T09:21:50.676Z,12.80
2023-02-16T09:24:17.645Z,13.00
2023-02-16T09:26:44.761Z,12.90
2023-02-16T09:29:13.032Z,12.80
2023-02-16T09:31:40.938Z,12.80
2023-02-16T09:34:19.684Z,13.00
2023-02-16T09:36:47.432Z,13.10
2023-02-16T09:39:16.959Z,13.40
2023-02-16T09:42:11.606Z,13.50
2023-02-16T09:45:11.534Z,13.60
2023-02-16T09:47:42.371Z,13.70
2023-02-16T09:50:50.345Z,13.90
2023-02-16T09:53:48.816Z,14.00
2023-02-16T09:56:29.318Z,14.00
2023-02-16T09:59:04.625Z,14.20
2023-02-16T10:01:46.575Z,14.40
2023-02-16T10:04:23.818Z,14.50
2023-02-16T10:07:12.044Z,14.60
2023-02-16T10:09:42.302Z,15.00
2023-02-16T10:12:13.395Z,15.20
2023-02-16T10:14:54.288Z,15.40
2023-02-16T10:17:28.607Z,15.50
2023-02-16T10:20:06.748Z,15.60
2023-02-16T10:23:18.538Z,15.50
2023-02-16T10:26:07.096Z,15.60
2023-02-16T10:29:07.168Z,15.80
2023-02-16T10:31:50.643Z,16.30
2023-02-16T10:34:32.699Z,16.30
2023-02-16T10:37:02.649Z,16.40
2023-02-16T10:39:32.707Z,16.70
2023-02-16T10:42:34.062Z,16.90
2023-02-16T10:45:15.836Z,17.10
2023-02-16T10:47:45.251Z,17.80
2023-02-16T10:50:33.279Z,18.10
2023-02-16T10:53:06.002Z,18.20
2023-02-16T10:55:32.863Z,17.90
2023-02-16T10:58:01.704Z,17.90
2023-02-16T11:00:48.363Z,17.60
2023-02-16T11:03:15.987Z,17.50
2023-02-16T11:05:43.070Z,17.60
2023-02-16T11:08:14.189Z,17.80
2023-02-16T11:10:51.929Z,18.00
2023-02-16T11:13:37.391Z,18.10
2023-02-16T11:16:13.829Z,18.30
2023-02-16T11:18:44.412Z,18.40
2023-02-16T11:21:12.333Z,18.40
2023-02-16T11:23:41.075Z,18.20
2023-02-16T11:26:11.815Z,18.40
2023-02-16T11:28:48.640Z,18.40
2023-02-16T11:31:34.335Z,18.30
2023-02-16T11:34:08.414Z,17.90
2023-02-16T11:36:40.521Z,17.70
2023-02-16T11:39:19.562Z,17.90
2023-02-16T11:41:57.794Z,18.00
2023-02-16T11:44:29.297Z,18.00
2023-02-16T11:46:57.326Z,17.90
2023-02-16T11:49:32.628Z,17.70
2023-02-16T11:52:00.319Z,17.50
2023-02-16T11:54:27.692Z,17.70
2023-02-16T11:57:06.726Z,18.00
2023-02-16T11:59:37.650Z,18.20
2023-02-16T12:02:26.179Z,18.70
2023-02-16T12:05:14.830Z,18.80
2023-02-16T12:08:12.903Z,18.90
2023-02-16T12:11:03.968Z,18.80
2023-02-16T12:13:45.555Z,19.00
2023-02-16T12:16:24.565Z,19.40
2023-02-16T12:19:24.503Z,19.30
2023-02-16T12:21:56.069Z,19.70
2023-02-16T12:24:39.153Z,19.80
2023-02-16T12:27:21.142Z,19.70
2023-02-16T12:30:08.252Z,19.60
2023-02-16T12:32:47.874Z,19.50
2023-02-16T12:35:47.203Z,19.30
2023-02-16T12:38:24.383Z,19.30
2023-02-16T12:40:59.426Z,19.20
2023-02-16T12:43:29.054Z,19.00
2023-02-16T12:45:58.444Z,19.00
2023-02-16T12:49:04.331Z,19.10
2023-02-16T12:51:38.293Z,19.30
2023-02-16T12:54:12.488Z,19.50
2023-02-16T12:56:52.721Z,19.80
2023-02-16T12:59:30.824Z,19.80
2023-02-16T13:02:00.313Z,19.50
2023-02-16T13:04:37.265Z,19.40
2023-02-16T13:07:28.747Z,19.20
2023-02-16T13:10:04.210Z,19.30
2023-02-16T13:12:38.692Z,19.30
2023-02-16T13:15:14.349Z,19.60
2023-02-16T13:17:47.308Z,19.80
2023-02-16T13:20:18.353Z,19.80
2023-02-16T13:22:58.661Z,19.70
2023-02-16T13:25:40.789Z,19.60
2023-02-16T13:28:27.460Z,19.40
2023-02-16T13:31:24.215Z,19.10
2023-02-16T13:34:05.594Z,19.00
2023-02-16T13:36:41.674Z,19.10
2023-02-16T13:39:30.742Z,19.40
2023-02-16T13:42:07.237Z,19.30
2023-02-16T13:44:51.918Z,18.80
2023-02-16T13:47:28.019Z,18.70
2023-02-16T13:50:00.634Z,18.70
2023-02-16T13:52:31.932Z,18.30
2023-02-16T13:55:03.283Z,17.90
2023-02-16T13:57:52.685Z,17.40
2023-02-16T14:00:35.513Z,17.10
2023-02-16T14:03:21.157Z,17.30
2023-02-16T14:05:50.777Z,17.50
2023-02-16T14:08:18.062Z,17.60
2023-02-16T14:11:06.713Z,17.60
2023-02-16T14:13:39.726Z,17.80
2023-02-16T14:16:18.858Z,18.00
2023-02-16T14:18:47.600Z,18.00
2023-02-16T14:21:41.631Z,17.80
2023-02-16T14:24:29.205Z,17.90
2023-02-16T14:27:01.095Z,17.90
2023-02-16T14:29:39.493Z,17.80
2023-02-16T14:32:09.367Z,17.80
2023-02-16T14:34:38.566Z,17.70
2023-02-16T14:37:17.656Z,17.30
2023-02-16T14:40:06.414Z,17.00
2023-02-16T14:42:35.951Z,16.60
2023-02-16T14:45:22.861Z,16.30
2023-02-16T14:48:01.520Z,16.10
2023-02-16T14:50:59.860Z,15.90
2023-02-16T14:53:47.324Z,15.60
2023-02-16T14:56:48.245Z,15.60
2023-02-16T14:59:32.119Z,15.70
2023-02-16T15:02:19.313Z,15.80
2023-02-16T15:04:47.137Z,15.80
2023-02-16T15:07:14.826Z,15.60
2023-02-16T15:09:43.140Z,15.30
2023-02-16T15:12:22.787Z,15.10
2023-02-16T15:14:51.758Z,14.90
2023-02-16T15:17:24.617Z,14.70
2023-02-16T15:19:54.477Z,14.40
2023-02-16T15:22:25.483Z,14.30
2023-02-16T15:25:01.731Z,14.20
2023-02-16T15:27:29.529Z,14.10
2023-02-16T15:30:21.030Z,13.90
2023-02-16T15:32:53.649Z,13.80
2023-02-16T15:35:28.173Z,13.60
2023-02-16T15:38:22.716Z,13.50
2023-02-16T15:40:58.062Z,13.30
2023-02-16T15:43:50.998Z,13.20
2023-02-16T15:46:33.356Z,13.10
2023-02-16T15:49:20.313Z,13.00
2023-02-16T15:51:48.296Z,12.80
2023-02-16T15:54:28.761Z,12.70
2023-02-16T15:56:58.484Z,12.70
2023-02-16T15:59:48.695Z,12.60
2023-02-16T16:02:22.866Z,12.40
2023-02-16T16:04:56.433Z,12.30
2023-02-16T16:07:35.624Z,12.20
2023-02-16T16:10:08.569Z,12.10
2023-02-16T16:12:36.554Z,12.00
2023-02-16T16:15:05.097Z,11.90
2023-02-16T16:17:37.541Z,11.90
2023-02-16T16:20:19.417Z,11.70
2023-02-16T16:22:46.334Z,11.70
2023-02-16T16:25:34.601Z,11.60
2023-02-16T16:28:08.975Z,11.50
2023-02-16T16:30:43.795Z,11.40
2023-02-16T16:33:13.008Z,11.30
2023-02-16T16:35:44.475Z,11.20
2023-02-16T16:38:42.635Z,11.10
2023-02-16T16:41:27.774Z,11.00
2023-02-16T16:43:56.689Z,10.90
2023-02-16T16:46:26.768Z,10.70
2023-02-16T16:49:03.511Z,10.60
2023-02-16T16:51:33.416Z,10.40
2023-02-16T16:54:04.192Z,10.20
2023-02-16T16:56:40.082Z,10.00
2023-02-16T16:59:07.241Z,9.90
2023-02-16T17:01:34.563Z,9.80
2023-02-16T17:04:01.509Z,9.70
2023-02-16T17:06:28.792Z,9.60
2023-02-16T17:08:55.781Z,9.50
2023-02-16T17:11:28.934Z,9.40
2023-02-16T17:13:58.498Z,9.30
2023-02-16T17:16:36.564Z,9.20
2023-02-16T17:19:04.389Z,9.10
2023-02-16T17:21:31.220Z,9.10
2023-02-16T17:23:58.145Z,9.00
2023-02-16T17:26:28.126Z,8.90
2023-02-16T17:28:55.104Z,8.90
2023-02-16T17:31:22.123Z,8.80
2023-02-16T17:33:49.135Z,8.80
2023-02-16T17:36:17.154Z,8.80
2023-02-16T17:38:44.476Z,8.70
2023-02-16T17:41:22.324Z,8.70
2023-02-16T17:43:49.663Z,8.60
2023-02-16T17:46:17.979Z,8.60
2023-02-16T17:48:44.923Z,8.60
2023-02-16T17:51:17.423Z,8.50
2023-02-16T17:53:44.703Z,8.50
2023-02-16T17:56:13.903Z,8.50
2023-02-16T17:58:40.892Z,8.40
2023-02-16T18:01:10.344Z,8.40
2023-02-16T18:03:37.174Z,8.40
2023-02-16T18:06:04.588Z,8.40
2023-02-16T18:08:31.703Z,8.30
2023-02-16T18:11:02.192Z,8.30
2023-02-16T18:13:30.053Z,8.30
2023-02-16T18:15:57.596Z,8.30
2023-02-16T18:18:24.538Z,8.30
2023-02-16T18:20:51.607Z,8.20
2023-02-16T18:23:18.479Z,8.20
2023-02-16T18:25:45.845Z,8.20
2023-02-16T18:28:15.221Z,8.20
2023-02-16T18:30:42.320Z,8.20
2023-02-16T18:33:09.283Z,8.10
2023-02-16T18:35:37.827Z,8.10
2023-02-16T18:38:04.850Z,8.10
2023-02-16T18:40:31.835Z,8.10
2023-02-16T18:42:59.831Z,8.10
2023-02-16T18:45:26.802Z,8.10
2023-02-16T18:47:53.652Z,8.10
2023-02-16T18:50:20.672Z,8.10
2023-02-16T18:52:47.677Z,8.10
2023-02-16T18:55:16.450Z,8.10
2023-02-16T18:57:43.407Z,8.10
2023-02-16T19:00:12.561Z,8.10
2023-02-16T19:02:40.968Z,8.10
2023-02-16T19:05:09.565Z,8.10
2023-02-16T19:07:37.102Z,8.10
2023-02-16T19:10:06.022Z,8.00
2023-02-16T19:12:32.912Z,8.00
2023-02-16T19:14:59.760Z,8.00
2023-02-16T19:17:26.920Z,8.00
2023-02-16T19:19:54.507Z,7.90
2023-02-16T19:22:22.171Z,7.90
2023-02-16T19:24:50.394Z,7.90
2023-02-16T19:27:18.259Z,8.00
2023-02-16T19:29:47.343Z,7.90
2023-02-16T19:32:14.299Z,7.90
2023-02-16T19:34:41.155Z,8.00
2023-02-16T19:37:07.997Z,8.00
2023-02-16T19:39:35.688Z,8.00
2023-02-16T19:42:02.544Z,8.10
2023-02-16T19:44:29.658Z,8.10
2023-02-16T19:46:56.721Z,8.10
2023-02-16T19:49:23.596Z,8.10
2023-02-16T19:51:50.571Z,8.10
2023-02-16T19:54:17.495Z,8.10
2023-02-16T19:56:44.383Z,8.10
2023-02-16T19:59:11.308Z,8.10
2023-02-16T20:01:38.264Z,8.10
2023-02-16T20:04:05.227Z,8.20
2023-02-16T20:06:41.745Z,8.20
2023-02-16T20:09:12.241Z,8.20
2023-02-16T20:11:39.961Z,8.20
2023-02-16T20:14:06.948Z,8.20
2023-02-16T20:16:33.854Z,8.20
2023-02-16T20:19:00.790Z,8.20
2023-02-16T20:21:29.063Z,8.20
2023-02-16T20:24:02.082Z,8.20
2023-02-16T20:26:34.274Z,8.20
2023-02-16T20:29:02.559Z,8.20
2023-02-16T20:31:54.280Z,8.10
2023-02-16T20:34:21.639Z,8.20
2023-02-16T20:36:49.108Z,8.20
2023-02-16T20:39:16.075Z,8.20
2023-02-16T20:41:43.095Z,8.20
2023-02-16T20:44:11.536Z,8.10
2023-02-16T20:46:39.951Z,8.10
2023-02-16T20:49:07.172Z,8.10
2023-02-16T20:51:34.881Z,8.10
2023-02-16T20:54:03.329Z,8.00
2023-02-16T20:56:30.431Z,8.00
2023-02-16T20:58:57.765Z,8.00
2023-02-16T21:01:26.557Z,8.00
2023-02-16T21:03:55.072Z,8.00
2023-02-16T21:06:22.282Z,8.00
2023-02-16T21:08:49.240Z,8.00
2023-02-16T21:11:16.532Z,8.00
2023-02-16T21:13:44.088Z,8.00
2023-02-16T21:16:11.552Z,7.90
2023-02-16T21:18:40.476Z,7.90
2023-02-16T21:21:07.780Z,7.80
2023-02-16T21:23:35.031Z,7.80
2023-02-16T21:26:04.185Z,7.80
2023-02-16T21:28:31.337Z,7.80
2023-02-16T21:31:06.378Z,7.80
2023-02-16T21:33:34.041Z,7.80
2023-02-16T21:36:15.577Z,7.80
2023-02-16T21:38:43.624Z,7.80
2023-02-16T21:41:27.607Z,7.90
2023-02-16T21:44:04.859Z,7.90
2023-02-16T21:46:35.243Z,7.90
2023-02-16T21:49:02.841Z,7.90
2023-02-16T21:51:32.813Z,7.90
2023-02-16T21:54:00.362Z,7.90
2023-02-16T21:56:27.176Z,7.90
2023-02-16T21:58:54.156Z,7.90
2023-02-16T22:01:30.244Z,8.00
2023-02-16T22:04:00.334Z,8.10
2023-02-16T22:06:32.181Z,8.00
2023-02-16T22:09:00.448Z,8.00
2023-02-16T22:11:27.437Z,7.90
2023-02-16T22:13:56.114Z,7.90
2023-02-16T22:16:24.038Z,7.80
2023-02-16T22:18:55.363Z,7.70
2023-02-16T22:21:22.226Z,7.70
2023-02-16T22:23:49.118Z,7.60
2023-02-16T22:26:23.751Z,7.50
2023-02-16T22:28:50.899Z,7.50
2023-02-16T22:31:23.274Z,7.40
2023-02-16T22:33:57.879Z,7.30
2023-02-16T22:36:29.333Z,7.20
2023-02-16T22:38:56.984Z,7.10
2023-02-16T22:41:24.780Z,7.10
2023-02-16T22:43:56.158Z,7.00
2023-02-16T22:46:24.532Z,7.00
2023-02-16T22:48:52.189Z,6.90
2023-02-16T22:51:20.523Z,6.90
2023-02-16T22:53:48.086Z,6.90
2023-02-16T22:56:17.133Z,6.90
2023-02-16T22:58:44.233Z,6.90
2023-02-16T23:01:13.502Z,6.90
2023-02-16T23:03:41.305Z,6.90
2023-02-16T23:06:16.301Z,7.00
2023-02-16T23:08:44.281Z,7.10
2023-02-16T23:11:12.115Z,7.10
2023-02-16T23:13:39.575Z,7.10
2023-02-16T23:16:12.588Z,7.20
2023-02-16T23:18:39.891Z,7.20
2023-02-16T23:21:18.429Z,7.30
2023-02-16T23:23:46.257Z,7.30
2023-02-16T23:26:13.759Z,7.30
2023-02-16T23:28:42.067Z,7.40
2023-02-16T23:31:09.791Z,7.30
2023-02-16T23:33:36.758Z,7.30
2023-02-16T23:36:03.966Z,7.40
2023-02-16T23:38:31.167Z,7.40
2023-02-16T23:41:03.215Z,7.50
2023-02-16T23:43:31.003Z,7.60
2023-02-16T23:45:58.280Z,7.60
2023-02-16T23:48:25.254Z,7.60
2023-02-16T23:50:53.623Z,7.70
2023-02-16T23:53:22.364Z,7.80
2023-02-16T23:56:04.919Z,7.80
2023-02-16T23:58:36.303Z,7.90
